createdAt,value
2023-05-14T00:04:53.715Z,1.23
2023-05-14T00:09:59.861Z,1.33
2023-05-14T00:15:06.119Z,1.10
2023-05-14T00:20:12.943Z,1.38
2023-05-14T00:25:18.479Z,1.45
2023-05-14T00:30:24.102Z,1.50
2023-05-14T00:35:29.902Z,1.48
2023-05-14T00:40:35.504Z,1.20
2023-05-14T00:45:41.048Z,1.00
2023-05-14T00:50:46.717Z,1.42
2023-05-14T00:55:53.184Z,1.35
2023-05-14T01:00:58.749Z,1.70
2023-05-14T01:06:14.266Z,1.33
2023-05-14T01:12:11.318Z,1.55
2023-05-14T01:17:23.559Z,1.20
2023-05-14T01:22:29.169Z,1.70
2023-05-14T01:27:38.346Z,1.17
2023-05-14T01:32:51.451Z,1.20
2023-05-14T01:38:00.368Z,1.85
2023-05-14T01:43:06.834Z,2.08
2023-05-14T01:48:14.626Z,1.40
2023-05-14T01:53:20.178Z,1.60
2023-05-14T01:58:25.831Z,1.58
2023-05-14T02:03:31.784Z,1.55
2023-05-14T02:08:37.308Z,1.27
2023-05-14T02:13:42.873Z,1.30
2023-05-14T02:18:48.525Z,1.20
2023-05-14T02:23:53.842Z,1.83
2023-05-14T02:28:59.507Z,1.13
2023-05-14T02:34:06.988Z,1.13
2023-05-14T02:44:17.620Z,1.23
2023-05-14T02:49:23.177Z,1.48
2023-05-14T02:54:28.726Z,1.80
2023-05-14T02:59:34.310Z,2.58
2023-05-14T03:04:40.196Z,2.03
2023-05-14T03:09:45.879Z,2.28
2023-05-14T03:14:51.599Z,1.88
2023-05-14T03:19:57.393Z,1.65
2023-05-14T03:25:03.058Z,2.03
2023-05-14T03:30:10.321Z,1.70
2023-05-14T03:35:16.146Z,1.83
2023-05-14T03:40:21.966Z,1.55
2023-05-14T03:45:30.855Z,1.73
2023-05-14T03:50:37.893Z,1.60
2023-05-14T03:55:44.788Z,2.17
2023-05-14T04:00:50.714Z,1.73
2023-05-14T04:05:56.404Z,1.25
2023-05-14T04:11:01.802Z,2.45
2023-05-14T04:16:07.595Z,1.80
2023-05-14T04:21:13.948Z,1.85
2023-05-14T04:26:19.765Z,2.22
2023-05-14T04:31:25.467Z,2.78
2023-05-14T04:36:31.863Z,2.80
2023-05-14T04:41:37.473Z,1.98
2023-05-14T04:46:42.990Z,2.78
2023-05-14T04:51:48.868Z,2.53
2023-05-14T04:56:56.583Z,2.40
2023-05-14T05:02:02.032Z,2.75
2023-05-14T05:07:07.611Z,3.15
2023-05-14T05:12:13.431Z,2.28
2023-05-14T05:17:18.609Z,2.90
2023-05-14T05:22:25.046Z,3.08
2023-05-14T05:27:30.463Z,3.55
2023-05-14T05:32:35.880Z,3.63
2023-05-14T05:37:43.268Z,3.75
2023-05-14T05:42:48.885Z,3.72
2023-05-14T05:53:02.755Z,4.60
2023-05-14T05:58:08.336Z,3.90
2023-05-14T06:03:14.492Z,3.30
2023-05-14T06:08:20.280Z,3.25
2023-05-14T06:13:25.703Z,2.22
2023-05-14T06:18:31.388Z,2.13
2023-05-14T06:23:36.938Z,2.33
2023-05-14T06:28:42.505Z,1.90
2023-05-14T06:33:48.822Z,1.70
2023-05-14T06:38:54.424Z,1.83
2023-05-14T06:43:59.900Z,1.83
2023-05-14T06:49:05.510Z,1.58
2023-05-14T06:54:11.066Z,1.83
2023-05-14T06:59:16.710Z,1.80
2023-05-14T07:04:22.159Z,1.77
2023-05-14T07:09:28.142Z,1.90
2023-05-14T07:14:33.656Z,1.55
2023-05-14T07:19:39.371Z,1.83
2023-05-14T07:24:44.955Z,1.80
2023-05-14T07:29:51.452Z,1.58
2023-05-14T07:34:57.438Z,1.98
2023-05-14T07:40:02.854Z,2.25
2023-05-14T07:45:10.564Z,1.83
2023-05-14T07:50:17.080Z,1.63
2023-05-14T07:55:22.805Z,1.77
2023-05-14T08:00:28.413Z,2.97
2023-05-14T08:05:34.113Z,1.90
2023-05-14T08:10:39.849Z,2.25
2023-05-14T08:15:45.357Z,2.00
2023-05-14T08:20:51.778Z,2.05
2023-05-14T08:25:57.631Z,1.45
2023-05-14T08:31:03.238Z,1.55
2023-05-14T08:36:09.189Z,1.30
2023-05-14T08:41:16.933Z,1.45
2023-05-14T08:46:25.739Z,1.77
2023-05-14T08:51:32.159Z,1.80
2023-05-14T08:56:39.684Z,2.10
2023-05-14T09:01:49.140Z,1.63
2023-05-14T09:06:56.195Z,1.67
2023-05-14T09:12:02.332Z,1.60
2023-05-14T09:17:09.152Z,1.58
2023-05-14T09:22:16.866Z,1.70
2023-05-14T09:27:23.217Z,1.63
2023-05-14T09:32:39.536Z,1.85
2023-05-14T09:37:51.540Z,1.58
2023-05-14T09:42:57.242Z,1.75
2023-05-14T09:48:04.053Z,1.63
2023-05-14T09:53:10.448Z,1.63
2023-05-14T09:58:16.286Z,1.23
2023-05-14T10:03:23.257Z,1.65
2023-05-14T10:08:34.344Z,1.30
2023-05-14T10:14:09.851Z,1.77
2023-05-14T10:19:18.320Z,1.45
2023-05-14T10:24:25.497Z,1.05
2023-05-14T10:29:36.183Z,2.00
2023-05-14T10:34:48.931Z,1.85
2023-05-14T10:40:01.333Z,1.67
2023-05-14T10:45:11.841Z,1.80
2023-05-14T10:50:19.545Z,1.02
2023-05-14T10:55:26.229Z,1.58
2023-05-14T11:00:34.660Z,1.48
2023-05-14T11:05:41.739Z,1.48
2023-05-14T11:10:47.695Z,1.27
2023-05-14T11:15:53.992Z,1.77
2023-05-14T11:21:03.322Z,1.42
2023-05-14T11:26:09.064Z,1.50
2023-05-14T11:31:15.273Z,1.85
2023-05-14T11:36:21.157Z,1.52
2023-05-14T11:41:28.598Z,1.33
2023-05-14T11:46:34.430Z,1.55
2023-05-14T11:51:40.095Z,1.60
2023-05-14T11:56:52.089Z,1.42
2023-05-14T12:01:58.143Z,1.05
2023-05-14T12:07:11.425Z,1.27
2023-05-14T12:12:19.987Z,1.38
2023-05-14T12:17:25.819Z,1.08
2023-05-14T12:22:31.601Z,1.92
2023-05-14T12:27:38.584Z,1.65
2023-05-14T12:32:43.954Z,1.33
2023-05-14T12:37:49.403Z,1.08
2023-05-14T12:42:56.718Z,1.35
2023-05-14T12:48:02.521Z,1.35
2023-05-14T12:53:07.986Z,1.42
2023-05-14T12:58:13.437Z,1.42
2023-05-14T13:03:18.692Z,1.23
2023-05-14T13:08:27.521Z,2.08
2023-05-14T13:13:32.956Z,1.45
2023-05-14T13:18:38.469Z,1.42
2023-05-14T13:23:44.160Z,1.52
2023-05-14T13:28:49.810Z,1.77
2023-05-14T13:33:55.368Z,1.55
2023-05-14T13:39:00.651Z,1.40
2023-05-14T13:44:06.394Z,1.85
2023-05-14T13:49:12.419Z,1.40
2023-05-14T13:54:17.916Z,1.60
2023-05-14T13:59:24.531Z,1.48
2023-05-14T14:04:29.736Z,1.58
2023-05-14T14:09:37.316Z,1.33
2023-05-14T14:14:42.834Z,1.75
2023-05-14T14:19:48.370Z,1.65
2023-05-14T14:24:55.284Z,1.60
2023-05-14T14:30:01.029Z,1.45
2023-05-14T14:35:13.906Z,1.23
2023-05-14T14:40:19.569Z,1.70
2023-05-14T14:45:25.616Z,1.95
2023-05-14T14:50:31.954Z,1.58
2023-05-14T14:55:38.103Z,1.40
2023-05-14T15:00:44.455Z,1.73
2023-05-14T15:05:50.289Z,1.58
2023-05-14T15:10:57.331Z,1.50
2023-05-14T15:16:02.973Z,1.58
2023-05-14T15:21:08.623Z,2.65
2023-05-14T15:26:14.422Z,4.05
2023-05-14T15:31:20.192Z,2.17
2023-05-14T15:36:29.133Z,1.50
2023-05-14T15:41:35.036Z,2.05
2023-05-14T15:46:40.528Z,2.05
2023-05-14T15:51:46.104Z,1.80
2023-05-14T15:56:51.658Z,2.05
2023-05-14T16:01:57.317Z,1.95
2023-05-14T16:07:27.632Z,1.98
2023-05-14T16:12:33.245Z,2.17
2023-05-14T16:17:39.128Z,1.77
2023-05-14T16:22:45.337Z,2.03
2023-05-14T16:27:50.979Z,1.73
2023-05-14T16:32:56.420Z,1.85
2023-05-14T16:38:02.355Z,1.75
2023-05-14T16:43:08.455Z,1.38
2023-05-14T16:48:13.999Z,1.73
2023-05-14T16:53:19.643Z,1.90
2023-05-14T16:58:25.137Z,1.67
2023-05-14T17:03:31.147Z,4.40
2023-05-14T17:08:36.680Z,1.58
2023-05-14T17:13:42.046Z,1.80
2023-05-14T17:18:47.486Z,1.58
2023-05-14T17:23:52.994Z,1.52
2023-05-14T17:28:58.525Z,1.40
2023-05-14T17:34:04.123Z,1.33
2023-05-14T17:39:09.834Z,1.50
2023-05-14T17:44:15.517Z,1.98
2023-05-14T17:49:20.993Z,1.75
2023-05-14T17:54:26.523Z,1.90
2023-05-14T17:59:32.091Z,1.42
2023-05-14T18:04:37.726Z,1.70
2023-05-14T18:09:43.212Z,1.30
2023-05-14T18:14:48.617Z,1.20
2023-05-14T18:19:54.197Z,1.38
2023-05-14T18:24:59.946Z,1.35
2023-05-14T18:30:06.034Z,1.30
2023-05-14T18:35:12.788Z,1.05
2023-05-14T18:40:19.076Z,2.15
2023-05-14T18:45:25.582Z,1.25
2023-05-14T18:50:31.374Z,1.38
2023-05-14T18:55:37.645Z,1.42
2023-05-14T19:00:43.000Z,1.33
2023-05-14T19:05:48.814Z,1.20
2023-05-14T19:10:54.482Z,1.98
2023-05-14T19:15:59.940Z,1.30
2023-05-14T19:21:05.543Z,1.35
2023-05-14T19:26:11.515Z,1.30
2023-05-14T19:31:17.435Z,2.10
2023-05-14T19:36:22.940Z,1.75
2023-05-14T19:41:28.560Z,1.42
2023-05-14T19:46:34.091Z,1.40
2023-05-14T19:51:40.045Z,1.42
2023-05-14T19:56:45.671Z,1.92
2023-05-14T20:01:51.079Z,0.90
2023-05-14T20:06:57.462Z,1.30
2023-05-14T20:12:02.779Z,1.17
2023-05-14T20:17:08.493Z,1.90
2023-05-14T20:22:14.228Z,1.48
2023-05-14T20:27:19.272Z,2.22
2023-05-14T20:32:25.961Z,1.65
2023-05-14T20:37:37.171Z,2.10
2023-05-14T20:42:42.536Z,1.42
2023-05-14T20:47:48.122Z,1.77
2023-05-14T20:52:54.191Z,1.50
2023-05-14T20:57:59.646Z,1.33
2023-05-14T21:03:05.460Z,1.42
2023-05-14T21:08:11.674Z,1.40
2023-05-14T21:13:17.050Z,1.42
2023-05-14T21:18:22.587Z,1.67
2023-05-14T21:23:27.652Z,1.38
2023-05-14T21:28:33.210Z,2.33
2023-05-14T21:33:38.697Z,1.83
2023-05-14T21:38:44.361Z,1.65
2023-05-14T21:43:49.864Z,1.67
2023-05-14T21:48:56.312Z,1.33
2023-05-14T21:54:01.810Z,1.33
2023-05-14T21:59:07.217Z,1.48
2023-05-14T22:04:12.846Z,1.58
2023-05-14T22:09:18.394Z,1.52
2023-05-14T22:14:23.971Z,2.05
2023-05-14T22:19:29.797Z,1.20
2023-05-14T22:24:35.408Z,1.30
2023-05-14T22:29:40.849Z,1.30
2023-05-14T22:34:46.325Z,1.45
2023-05-14T22:39:52.057Z,1.52
2023-05-14T22:44:57.918Z,1.77
2023-05-14T22:50:03.606Z,1.45
2023-05-14T22:55:09.995Z,1.63
2023-05-14T23:00:16.229Z,1.70
2023-05-14T23:05:21.931Z,1.85
2023-05-14T23:10:27.798Z,1.65
2023-05-14T23:15:34.188Z,1.50
2023-05-14T23:20:39.614Z,1.55
2023-05-14T23:25:45.096Z,1.95
2023-05-14T23:30:50.704Z,1.77
2023-05-14T23:35:56.166Z,1.90
2023-05-14T23:41:01.570Z,1.73
2023-05-14T23:46:07.258Z,1.92
2023-05-14T23:51:12.934Z,1.67
2023-05-14T23:56:18.654Z,1.70
